createdAt,value
2016-09-29T00:00:13.945Z,20.12
2016-09-29T00:01:13.609Z,20.09
2016-09-29T00:02:13.599Z,20.05
2016-09-29T00:03:13.594Z,20.09
2016-09-29T00:04:13.588Z,20.15
2016-09-29T00:05:13.569Z,20.1
2016-09-29T00:06:13.563Z,20.12
2016-09-29T00:07:13.570Z,20.1
2016-09-29T00:08:13.595Z,20.1
2016-09-29T00:09:13.536Z,20.09
2016-09-29T00:10:13.844Z,20.1
2016-09-29T00:11:13.521Z,20.12
2016-09-29T00:12:13.513Z,20.1
2016-09-29T00:13:13.500Z,20.08
2016-09-29T00:14:13.812Z,20.06
2016-09-29T00:15:13.488Z,20.1
2016-09-29T00:16:13.476Z,20.06
2016-09-29T00:17:13.475Z,20.08
2016-09-29T00:18:13.509Z,20.05
2016-09-29T00:19:14.089Z,20.03
2016-09-29T00:20:13.448Z,20.06
2016-09-29T00:21:13.444Z,19.95
2016-09-29T00:22:13.433Z,20.03
2016-09-29T00:23:13.419Z,20.06
2016-09-29T00:24:13.724Z,20.08
2016-09-29T00:25:13.409Z,20.05
2016-09-29T00:26:13.389Z,20.02
2016-09-29T00:27:13.388Z,20.03
2016-09-29T00:28:13.701Z,20
2016-09-29T00:29:13.368Z,19.95
2016-09-29T00:30:13.358Z,19.97
2016-09-29T00:31:13.661Z,20.05
2016-09-29T00:32:13.345Z,19.94
2016-09-29T00:33:13.334Z,20
2016-09-29T00:34:13.328Z,19.93
2016-09-29T00:35:13.316Z,19.95
2016-09-29T00:36:13.305Z,19.95
2016-09-29T00:37:13.613Z,19.98
2016-09-29T00:38:13.290Z,19.91
2016-09-29T00:39:13.277Z,20
2016-09-29T00:40:13.593Z,19.94
2016-09-29T00:41:13.262Z,19.94
2016-09-29T00:42:13.262Z,19.87
2016-09-29T00:43:13.251Z,19.91
2016-09-29T00:44:13.873Z,19.84
2016-09-29T00:45:13.233Z,19.8
2016-09-29T00:46:13.223Z,19.78
2016-09-29T00:47:13.210Z,19.79
2016-09-29T00:48:13.212Z,19.7
2016-09-29T00:49:13.199Z,19.83
2016-09-29T00:50:13.184Z,19.69
2016-09-29T00:51:13.180Z,19.73
2016-09-29T00:52:13.169Z,19.68
2016-09-29T00:53:13.158Z,19.65
2016-09-29T00:54:13.469Z,19.66
2016-09-29T00:55:13.148Z,19.63
2016-09-29T00:56:13.450Z,19.66
2016-09-29T00:57:13.124Z,19.65
2016-09-29T00:58:13.117Z,19.53
2016-09-29T00:59:13.114Z,19.63
2016-09-29T01:00:13.417Z,19.57
2016-09-29T01:01:13.092Z,19.61
2016-09-29T01:02:13.089Z,19.55
2016-09-29T01:03:13.070Z,19.54
2016-09-29T01:04:13.065Z,19.55
2016-09-29T01:05:13.375Z,19.55
2016-09-29T01:06:13.257Z,19.46
2016-09-29T01:07:13.065Z,19.38
2016-09-29T01:08:13.051Z,19.47
2016-09-29T01:09:13.025Z,19.47
2016-09-29T01:10:13.013Z,19.47
2016-09-29T01:11:13.003Z,19.39
2016-09-29T01:12:13.003Z,19.43
2016-09-29T01:13:12.987Z,19.38
2016-09-29T01:14:12.978Z,19.38
2016-09-29T01:15:13.284Z,19.38
2016-09-29T01:16:12.966Z,19.38
2016-09-29T01:17:13.152Z,19.35
2016-09-29T01:18:12.941Z,19.38
2016-09-29T01:19:12.932Z,19.36
2016-09-29T01:20:12.934Z,19.33
2016-09-29T01:21:12.916Z,19.33
2016-09-29T01:22:12.904Z,19.33
2016-09-29T01:23:12.898Z,19.33
2016-09-29T01:24:12.939Z,19.29
2016-09-29T01:25:12.879Z,19.36
2016-09-29T01:26:12.867Z,19.31
2016-09-29T01:27:12.862Z,19.33
2016-09-29T01:28:12.852Z,19.33
2016-09-29T01:29:13.155Z,19.29
2016-09-29T01:30:13.150Z,19.32
2016-09-29T01:31:12.824Z,19.23
2016-09-29T01:32:12.816Z,19.21
2016-09-29T01:33:13.440Z,19.18
2016-09-29T01:34:12.800Z,19.25
2016-09-29T01:35:12.791Z,19.23
2016-09-29T01:36:12.786Z,19.2
2016-09-29T01:37:12.771Z,19.29
2016-09-29T01:38:12.766Z,19.24
2016-09-29T01:39:12.759Z,19.24
2016-09-29T01:40:12.753Z,19.21
2016-09-29T01:41:12.736Z,19.17
2016-09-29T01:42:12.726Z,19.2
2016-09-29T01:43:13.033Z,19.28
2016-09-29T01:44:12.706Z,19.32
2016-09-29T01:45:12.702Z,19.21
2016-09-29T01:46:12.690Z,19.23
2016-09-29T01:47:12.997Z,19.33
2016-09-29T01:48:12.670Z,19.33
2016-09-29T01:49:12.666Z,19.32
2016-09-29T01:50:12.660Z,19.31
2016-09-29T01:51:12.957Z,19.33
2016-09-29T01:52:12.632Z,19.35
2016-09-29T01:53:12.625Z,19.29
2016-09-29T01:54:12.622Z,19.36
2016-09-29T01:55:12.604Z,19.33
2016-09-29T01:56:12.599Z,19.32
2016-09-29T01:57:12.589Z,19.33
2016-09-29T01:58:12.897Z,19.39
2016-09-29T01:59:12.576Z,19.32
2016-09-29T02:00:12.879Z,19.32
2016-09-29T02:01:12.869Z,19.35
2016-09-29T02:02:12.859Z,19.39
2016-09-29T02:03:12.846Z,19.36
2016-09-29T02:04:12.530Z,19.39
2016-09-29T02:05:12.516Z,19.46
2016-09-29T02:06:12.503Z,19.39
2016-09-29T02:07:12.511Z,19.5
2016-09-29T02:08:12.488Z,19.38
2016-09-29T02:09:12.478Z,19.39
2016-09-29T02:10:12.471Z,19.4
2016-09-29T02:11:12.465Z,19.35
2016-09-29T02:12:12.453Z,19.42
2016-09-29T02:13:12.446Z,19.46
2016-09-29T02:14:12.437Z,19.33
2016-09-29T02:15:12.424Z,19.29
2016-09-29T02:16:12.414Z,19.32
2016-09-29T02:17:12.414Z,19.38
2016-09-29T02:18:12.401Z,19.31
2016-09-29T02:19:12.385Z,19.31
2016-09-29T02:20:12.385Z,19.25
2016-09-29T02:21:12.688Z,19.24
2016-09-29T02:22:12.372Z,19.2
2016-09-29T02:23:12.668Z,19.17
2016-09-29T02:24:12.339Z,19.15
2016-09-29T02:25:12.334Z,19.08
2016-09-29T02:26:12.323Z,19.15
2016-09-29T02:27:12.630Z,19.13
2016-09-29T02:28:12.624Z,19.14
2016-09-29T02:29:12.303Z,19.14
2016-09-29T02:30:12.299Z,19.1
2016-09-29T02:31:12.592Z,19.06
2016-09-29T02:32:12.263Z,19.1
2016-09-29T02:33:12.262Z,19.01
2016-09-29T02:34:12.251Z,19.11
2016-09-29T02:35:12.237Z,19.02
2016-09-29T02:36:12.550Z,19.01
2016-09-29T02:37:12.223Z,19.02
2016-09-29T02:38:12.215Z,19.01
2016-09-29T02:39:12.209Z,19.06
2016-09-29T02:40:12.202Z,19.06
2016-09-29T02:41:12.202Z,19.06
2016-09-29T02:42:12.178Z,18.99
2016-09-29T02:43:12.163Z,18.99
2016-09-29T02:44:12.161Z,19.1
2016-09-29T02:45:12.477Z,18.99
2016-09-29T02:46:12.137Z,19.02
2016-09-29T02:47:12.136Z,19.06
2016-09-29T02:48:12.135Z,19.05
2016-09-29T02:49:12.329Z,18.99
2016-09-29T02:50:12.101Z,19.02
2016-09-29T02:51:12.090Z,18.98
2016-09-29T02:52:12.082Z,18.97
2016-09-29T02:53:12.388Z,18.98
2016-09-29T02:54:12.075Z,18.91
2016-09-29T02:55:12.372Z,18.94
2016-09-29T02:56:12.049Z,18.94
2016-09-29T02:57:12.036Z,18.95
2016-09-29T02:58:12.026Z,18.98
2016-09-29T02:59:12.015Z,18.92
2016-09-29T03:00:12.013Z,18.98
2016-09-29T03:01:11.998Z,18.97
2016-09-29T03:02:11.989Z,18.92
2016-09-29T03:03:12.327Z,18.86
2016-09-29T03:04:12.298Z,18.92
2016-09-29T03:05:11.964Z,18.8
2016-09-29T03:06:11.958Z,18.79
2016-09-29T03:07:12.256Z,18.87
2016-09-29T03:08:12.249Z,18.76
2016-09-29T03:09:11.922Z,18.84
2016-09-29T03:10:11.975Z,18.83
2016-09-29T03:11:11.905Z,18.9
2016-09-29T03:12:11.898Z,18.76
2016-09-29T03:13:11.895Z,18.82
2016-09-29T03:14:11.879Z,18.84
2016-09-29T03:15:11.864Z,18.82
2016-09-29T03:16:12.171Z,18.77
2016-09-29T03:17:11.850Z,18.79
2016-09-29T03:18:12.473Z,18.8
2016-09-29T03:19:11.830Z,18.8
2016-09-29T03:20:12.138Z,18.8
2016-09-29T03:21:12.122Z,18.79
2016-09-29T03:22:11.804Z,18.77
2016-09-29T03:23:11.790Z,18.74
2016-09-29T03:24:11.781Z,18.8
2016-09-29T03:25:11.772Z,18.84
2016-09-29T03:26:11.761Z,18.79
2016-09-29T03:27:11.753Z,18.83
2016-09-29T03:28:11.746Z,18.72
2016-09-29T03:29:11.734Z,18.76
2016-09-29T03:30:12.348Z,18.79
2016-09-29T03:31:11.721Z,18.7
2016-09-29T03:32:12.024Z,18.77
2016-09-29T03:33:11.697Z,18.74
2016-09-29T03:34:12.002Z,18.76
2016-09-29T03:35:11.684Z,18.77
2016-09-29T03:36:11.671Z,18.79
2016-09-29T03:37:11.686Z,18.68
2016-09-29T03:38:11.973Z,18.76
2016-09-29T03:39:11.963Z,18.72
2016-09-29T03:40:11.962Z,18.79
2016-09-29T03:41:11.624Z,18.74
2016-09-29T03:42:11.619Z,18.74
2016-09-29T03:43:11.916Z,18.74
2016-09-29T03:44:11.595Z,18.68
2016-09-29T03:45:11.584Z,18.79
2016-09-29T03:46:11.575Z,18.86
2016-09-29T03:47:11.563Z,18.73
2016-09-29T03:48:11.558Z,18.73
2016-09-29T03:49:11.544Z,18.79
2016-09-29T03:50:11.898Z,18.77
2016-09-29T03:51:11.525Z,18.77
2016-09-29T03:52:11.514Z,18.76
2016-09-29T03:53:11.505Z,18.79
2016-09-29T03:54:11.813Z,18.68
2016-09-29T03:55:11.503Z,18.73
2016-09-29T03:56:11.801Z,18.64
2016-09-29T03:57:11.471Z,18.74
2016-09-29T03:58:11.780Z,18.67
2016-09-29T03:59:11.769Z,18.64
2016-09-29T04:00:11.759Z,18.59
2016-09-29T04:01:11.429Z,18.61
2016-09-29T04:02:11.423Z,18.67
2016-09-29T04:03:11.411Z,18.55
2016-09-29T04:04:11.406Z,18.58
2016-09-29T04:05:11.397Z,18.47
2016-09-29T04:06:11.388Z,18.68
2016-09-29T04:07:11.686Z,18.54
2016-09-29T04:08:11.365Z,18.55
2016-09-29T04:09:11.356Z,18.54
2016-09-29T04:10:11.664Z,18.61
2016-09-29T04:11:11.337Z,18.57
2016-09-29T04:12:11.644Z,18.59
2016-09-29T04:13:11.317Z,18.52
2016-09-29T04:14:11.307Z,18.61
2016-09-29T04:15:11.615Z,18.52
2016-09-29T04:16:11.291Z,18.58
2016-09-29T04:17:11.281Z,18.55
2016-09-29T04:18:11.269Z,18.59
2016-09-29T04:19:11.890Z,18.55
2016-09-29T04:20:11.250Z,18.5
2016-09-29T04:21:11.559Z,18.54
2016-09-29T04:22:11.231Z,18.57
2016-09-29T04:23:11.221Z,18.5
2016-09-29T04:24:11.217Z,18.52
2016-09-29T04:25:11.201Z,18.5
2016-09-29T04:26:11.199Z,18.52
2016-09-29T04:27:11.191Z,18.43
2016-09-29T04:28:11.183Z,18.49
2016-09-29T04:29:11.168Z,18.36
2016-09-29T04:30:11.474Z,18.46
2016-09-29T04:31:11.490Z,18.46
2016-09-29T04:32:11.772Z,18.47
2016-09-29T04:33:11.446Z,18.43
2016-09-29T04:34:11.126Z,18.43
2016-09-29T04:35:11.112Z,18.43
2016-09-29T04:36:11.117Z,18.36
2016-09-29T04:37:11.096Z,18.4
2016-09-29T04:38:11.074Z,18.37
2016-09-29T04:39:11.068Z,18.39
2016-09-29T04:40:11.061Z,18.31
2016-09-29T04:41:11.379Z,18.37
2016-09-29T04:42:11.041Z,18.37
2016-09-29T04:43:11.344Z,18.29
2016-09-29T04:44:11.023Z,18.27
2016-09-29T04:45:11.012Z,18.31
2016-09-29T04:46:11.007Z,18.27
2016-09-29T04:47:10.993Z,18.31
2016-09-29T04:48:10.981Z,18.24
2016-09-29T04:49:11.178Z,18.27
2016-09-29T04:50:11.586Z,18.22
2016-09-29T04:51:10.960Z,18.13
2016-09-29T04:52:10.947Z,18.22
2016-09-29T04:53:10.930Z,18.18
2016-09-29T04:54:10.924Z,18.27
2016-09-29T04:55:10.914Z,18.13
2016-09-29T04:56:10.951Z,18.15
2016-09-29T04:57:10.896Z,18.13
2016-09-29T04:58:11.246Z,18.07
2016-09-29T04:59:10.920Z,18.07
2016-09-29T05:00:10.869Z,18.09
2016-09-29T05:01:10.857Z,18.07
2016-09-29T05:02:11.159Z,18.06
2016-09-29T05:03:10.835Z,18.07
2016-09-29T05:04:10.832Z,18.07
2016-09-29T05:05:10.817Z,17.97
2016-09-29T05:06:10.807Z,17.97
2016-09-29T05:07:10.806Z,17.95
2016-09-29T05:08:11.100Z,17.97
2016-09-29T05:09:10.787Z,17.99
2016-09-29T05:10:10.767Z,17.95
2016-09-29T05:11:10.806Z,17.97
2016-09-29T05:12:10.749Z,17.94
2016-09-29T05:13:11.058Z,17.91
2016-09-29T05:14:10.731Z,17.84
2016-09-29T05:15:10.719Z,17.85
2016-09-29T05:16:10.705Z,17.84
2016-09-29T05:17:10.707Z,17.84
2016-09-29T05:18:10.691Z,17.87
2016-09-29T05:19:10.678Z,17.87
2016-09-29T05:20:10.678Z,17.88
2016-09-29T05:21:10.659Z,17.88
2016-09-29T05:22:10.651Z,17.88
2016-09-29T05:23:10.642Z,17.84
2016-09-29T05:24:10.627Z,17.82
2016-09-29T05:25:10.624Z,17.84
2016-09-29T05:26:10.926Z,17.84
2016-09-29T05:27:10.600Z,17.84
2016-09-29T05:28:10.591Z,17.84
2016-09-29T05:29:10.579Z,17.81
2016-09-29T05:30:10.566Z,17.84
2016-09-29T05:31:10.560Z,17.79
2016-09-29T05:32:10.547Z,17.81
2016-09-29T05:33:10.540Z,17.78
2016-09-29T05:34:10.618Z,17.73
2016-09-29T05:35:10.520Z,17.79
2016-09-29T05:36:10.825Z,17.73
2016-09-29T05:37:10.498Z,17.76
2016-09-29T05:38:10.488Z,17.7
2016-09-29T05:39:10.795Z,17.73
2016-09-29T05:40:10.476Z,17.74
2016-09-29T05:41:10.462Z,17.69
2016-09-29T05:42:10.462Z,17.7
2016-09-29T05:43:10.442Z,17.79
2016-09-29T05:44:10.746Z,17.74
2016-09-29T05:45:10.635Z,17.64
2016-09-29T05:46:10.410Z,17.64
2016-09-29T05:47:10.401Z,17.74
2016-09-29T05:48:10.392Z,17.73
2016-09-29T05:49:10.380Z,17.78
2016-09-29T05:50:11.001Z,17.69
2016-09-29T05:51:10.366Z,17.71
2016-09-29T05:52:10.670Z,17.7
2016-09-29T05:53:10.659Z,17.73
2016-09-29T05:54:10.330Z,17.76
2016-09-29T05:55:10.322Z,17.73
2016-09-29T05:56:10.313Z,17.67
2016-09-29T05:57:10.383Z,17.71
2016-09-29T05:58:10.782Z,17.69
2016-09-29T05:59:10.607Z,17.7
2016-09-29T06:00:10.269Z,17.7
2016-09-29T06:01:10.582Z,17.71
2016-09-29T06:02:10.256Z,17.64
2016-09-29T06:03:10.248Z,17.78
2016-09-29T06:04:10.564Z,17.76
2016-09-29T06:05:10.539Z,17.79
2016-09-29T06:06:10.526Z,17.78
2016-09-29T06:07:10.205Z,17.84
2016-09-29T06:08:10.198Z,17.85
2016-09-29T06:09:10.183Z,17.85
2016-09-29T06:10:10.490Z,17.85
2016-09-29T06:11:10.502Z,17.91
2016-09-29T06:12:10.152Z,17.81
2016-09-29T06:13:10.141Z,17.91
2016-09-29T06:14:10.135Z,17.94
2016-09-29T06:15:10.437Z,17.97
2016-09-29T06:16:10.112Z,17.89
2016-09-29T06:17:10.100Z,17.92
2016-09-29T06:18:10.413Z,17.94
2016-09-29T06:19:10.081Z,17.84
2016-09-29T06:20:10.398Z,17.88
2016-09-29T06:21:10.386Z,17.88
2016-09-29T06:22:10.060Z,17.92
2016-09-29T06:23:10.388Z,17.97
2016-09-29T06:24:10.034Z,17.88
2016-09-29T06:25:10.023Z,17.89
2016-09-29T06:26:10.020Z,17.92
2016-09-29T06:27:10.315Z,17.92
2016-09-29T06:28:09.999Z,17.91
2016-09-29T06:29:10.296Z,17.97
2016-09-29T06:30:10.290Z,17.87
2016-09-29T06:31:10.279Z,17.91
2016-09-29T06:32:09.959Z,17.94
2016-09-29T06:33:09.945Z,17.94
2016-09-29T06:34:09.936Z,17.85
2016-09-29T06:35:09.926Z,17.94
2016-09-29T06:36:09.915Z,17.94
2016-09-29T06:37:09.964Z,17.84
2016-09-29T06:38:09.909Z,17.91
2016-09-29T06:39:09.886Z,17.82
2016-09-29T06:40:09.882Z,17.92
2016-09-29T06:41:09.870Z,17.91
2016-09-29T06:42:09.861Z,17.92
2016-09-29T06:43:09.866Z,17.87
2016-09-29T06:44:10.159Z,17.94
2016-09-29T06:45:09.853Z,17.99
2016-09-29T06:46:09.844Z,17.94
2016-09-29T06:47:09.813Z,17.89
2016-09-29T06:48:10.445Z,17.94
2016-09-29T06:49:10.000Z,17.94
2016-09-29T06:50:10.095Z,17.92
2016-09-29T06:51:09.778Z,17.91
2016-09-29T06:52:09.812Z,17.88
2016-09-29T06:53:10.068Z,17.95
2016-09-29T06:54:09.739Z,17.91
2016-09-29T06:55:10.042Z,18
2016-09-29T06:56:09.722Z,18.03
2016-09-29T06:57:09.710Z,18.06
2016-09-29T06:58:09.702Z,18.17
2016-09-29T06:59:09.693Z,18.13
2016-09-29T07:00:09.683Z,18.17
2016-09-29T07:01:09.676Z,18.21
2016-09-29T07:02:09.984Z,18.21
2016-09-29T07:03:09.657Z,18.37
2016-09-29T07:04:09.648Z,18.39
2016-09-29T07:05:09.636Z,18.47
2016-09-29T07:06:09.633Z,18.49
2016-09-29T07:07:09.634Z,18.57
2016-09-29T07:08:09.609Z,18.65
2016-09-29T07:09:09.598Z,18.62
2016-09-29T07:10:09.911Z,18.83
2016-09-29T07:11:09.575Z,18.83
2016-09-29T07:12:09.583Z,18.77
2016-09-29T07:13:09.885Z,18.82
2016-09-29T07:14:09.552Z,18.86
2016-09-29T07:15:09.549Z,18.9
2016-09-29T07:16:09.534Z,18.94
2016-09-29T07:17:09.843Z,18.94
2016-09-29T07:18:09.718Z,18.95
2016-09-29T07:19:09.830Z,18.95
2016-09-29T07:20:09.806Z,18.98
2016-09-29T07:21:09.803Z,18.94
2016-09-29T07:22:09.530Z,18.98
2016-09-29T07:23:09.466Z,18.99
2016-09-29T07:24:09.469Z,19.08
2016-09-29T07:25:09.455Z,19.02
2016-09-29T07:26:09.449Z,19.06
2016-09-29T07:27:09.436Z,19.05
2016-09-29T07:28:09.428Z,19.1
2016-09-29T07:29:09.417Z,19.17
2016-09-29T07:30:09.721Z,19.23
2016-09-29T07:31:09.400Z,19.23
2016-09-29T07:32:09.404Z,19.29
2016-09-29T07:33:09.380Z,19.32
2016-09-29T07:34:09.685Z,19.31
2016-09-29T07:35:09.364Z,19.35
2016-09-29T07:36:09.361Z,19.29
2016-09-29T07:37:09.358Z,19.35
2016-09-29T07:38:09.652Z,19.33
2016-09-29T07:39:09.330Z,19.36
2016-09-29T07:40:09.320Z,19.42
2016-09-29T07:41:09.311Z,19.4
2016-09-29T07:42:09.306Z,19.4
2016-09-29T07:43:09.299Z,19.51
2016-09-29T07:44:09.280Z,19.58
2016-09-29T07:45:09.273Z,19.53
2016-09-29T07:46:09.276Z,19.61
2016-09-29T07:47:09.257Z,19.61
2016-09-29T07:48:09.256Z,19.6
2016-09-29T07:49:09.245Z,19.63
2016-09-29T07:50:09.235Z,19.61
2016-09-29T07:51:09.236Z,19.61
2016-09-29T07:52:09.232Z,19.65
2016-09-29T07:53:09.529Z,19.66
2016-09-29T07:54:09.200Z,19.7
2016-09-29T07:55:09.190Z,19.7
2016-09-29T07:56:09.186Z,19.75
2016-09-29T07:57:09.494Z,19.65
2016-09-29T07:58:09.178Z,19.68
2016-09-29T07:59:09.160Z,19.66
2016-09-29T08:00:09.159Z,19.69
2016-09-29T08:01:09.147Z,19.58
2016-09-29T08:02:09.445Z,19.58
2016-09-29T08:03:09.758Z,19.48
2016-09-29T08:04:09.428Z,19.55
2016-09-29T08:05:09.111Z,19.6
2016-09-29T08:06:09.107Z,19.43
2016-09-29T08:07:09.407Z,19.6
2016-09-29T08:08:09.081Z,19.66
2016-09-29T08:09:09.076Z,19.72
2016-09-29T08:10:09.071Z,19.7
2016-09-29T08:11:09.055Z,19.73
2016-09-29T08:12:09.048Z,19.8
2016-09-29T08:13:09.040Z,19.84
2016-09-29T08:14:09.033Z,19.86
2016-09-29T08:15:09.027Z,19.83
2016-09-29T08:16:09.030Z,19.94
2016-09-29T08:17:09.014Z,20.03
2016-09-29T08:18:09.000Z,20.03
2016-09-29T08:19:08.993Z,20.13
2016-09-29T08:20:08.982Z,20.09
2016-09-29T08:21:08.973Z,20.1
2016-09-29T08:22:08.966Z,20.2
2016-09-29T08:23:08.977Z,20.25
2016-09-29T08:24:09.270Z,20.27
2016-09-29T08:25:08.937Z,20.25
2016-09-29T08:26:08.933Z,20.24
2016-09-29T08:27:08.928Z,20.21
2016-09-29T08:28:08.921Z,20.18
2016-09-29T08:29:08.920Z,20.15
2016-09-29T08:30:08.902Z,20.24
2016-09-29T08:31:08.899Z,20.15
2016-09-29T08:32:08.883Z,20.2
2016-09-29T08:33:09.189Z,20.23
2016-09-29T08:34:08.871Z,20.24
2016-09-29T08:35:09.172Z,20.34
2016-09-29T08:36:08.851Z,20.27
2016-09-29T08:37:08.844Z,20.33
2016-09-29T08:38:08.834Z,20.42
2016-09-29T08:39:08.824Z,20.41
2016-09-29T08:40:08.832Z,20.47
2016-09-29T08:41:08.809Z,20.56
2016-09-29T08:42:08.812Z,20.56
2016-09-29T08:43:08.794Z,20.65
2016-09-29T08:44:08.784Z,20.74
2016-09-29T08:45:08.774Z,20.71
2016-09-29T08:46:08.770Z,20.8
2016-09-29T08:47:08.769Z,20.71
2016-09-29T08:48:09.072Z,20.77
2016-09-29T08:49:08.948Z,20.76
2016-09-29T08:50:08.748Z,20.74
2016-09-29T08:51:08.735Z,20.59
2016-09-29T08:52:08.723Z,20.54
2016-09-29T08:53:08.717Z,20.46
2016-09-29T08:54:08.727Z,20.5
2016-09-29T08:55:08.698Z,20.59
2016-09-29T08:56:09.005Z,20.58
2016-09-29T08:57:08.682Z,20.69
2016-09-29T08:58:08.672Z,20.66
2016-09-29T08:59:08.978Z,20.8
2016-09-29T09:00:08.659Z,20.71
2016-09-29T09:01:08.650Z,20.69
2016-09-29T09:02:09.657Z,20.81
2016-09-29T09:03:09.295Z,20.83
2016-09-29T09:04:08.698Z,20.83
2016-09-29T09:05:09.089Z,20.91
2016-09-29T09:06:08.683Z,20.81
2016-09-29T09:07:09.182Z,20.81
2016-09-29T09:08:08.597Z,20.76
2016-09-29T09:09:08.587Z,20.69
2016-09-29T09:10:08.896Z,20.72
2016-09-29T09:11:08.950Z,20.77
2016-09-29T09:12:08.881Z,20.77
2016-09-29T09:13:08.557Z,20.8
2016-09-29T09:14:08.555Z,20.84
2016-09-29T09:15:08.543Z,20.84
2016-09-29T09:16:08.855Z,20.81
2016-09-29T09:17:08.840Z,20.87
2016-09-29T09:18:08.852Z,20.87
2016-09-29T09:19:08.827Z,20.84
2016-09-29T09:20:08.821Z,20.86
2016-09-29T09:21:08.865Z,20.84
2016-09-29T09:22:08.531Z,20.89
2016-09-29T09:23:08.860Z,20.81
2016-09-29T09:24:08.498Z,20.69
2016-09-29T09:25:08.785Z,20.84
2016-09-29T09:26:08.498Z,20.83
2016-09-29T09:27:08.762Z,20.83
2016-09-29T09:28:08.439Z,20.93
2016-09-29T09:29:08.774Z,20.91
2016-09-29T09:30:08.446Z,20.9
2016-09-29T09:31:08.816Z,21.02
2016-09-29T09:32:08.421Z,21.06
2016-09-29T09:33:08.411Z,21.17
2016-09-29T09:34:08.746Z,21.06
2016-09-29T09:35:08.393Z,21.09
2016-09-29T09:36:08.717Z,21.11
2016-09-29T09:37:08.371Z,21.09
2016-09-29T09:38:08.494Z,21.01
2016-09-29T09:39:08.355Z,20.93
2016-09-29T09:40:08.370Z,21.05
2016-09-29T09:41:08.385Z,20.99
2016-09-29T09:42:08.374Z,20.96
2016-09-29T09:43:08.323Z,20.96
2016-09-29T09:44:08.629Z,21.05
2016-09-29T09:45:08.624Z,21.05
2016-09-29T09:46:08.298Z,21.04
2016-09-29T09:47:08.304Z,21.01
2016-09-29T09:48:08.616Z,20.99
2016-09-29T09:49:08.279Z,21.14
2016-09-29T09:50:08.292Z,21.21
2016-09-29T09:51:08.256Z,21.27
2016-09-29T09:52:08.252Z,21.3
2016-09-29T09:53:08.561Z,21.27
2016-09-29T09:54:08.310Z,21.24
2016-09-29T09:55:08.241Z,21.41
2016-09-29T09:56:08.555Z,21.42
2016-09-29T09:57:08.211Z,21.46
2016-09-29T09:58:08.219Z,21.53
2016-09-29T09:59:08.202Z,21.56
2016-09-29T10:00:08.195Z,21.54
2016-09-29T10:01:08.185Z,21.64
2016-09-29T10:02:08.494Z,21.63
2016-09-29T10:03:08.180Z,21.67
2016-09-29T10:04:08.167Z,21.64
2016-09-29T10:05:08.156Z,21.6
2016-09-29T10:06:08.165Z,21.61
2016-09-29T10:07:08.153Z,21.6
2016-09-29T10:08:08.135Z,21.63
2016-09-29T10:09:08.129Z,21.67
2016-09-29T10:10:08.122Z,21.72
2016-09-29T10:11:08.111Z,21.91
2016-09-29T10:12:08.108Z,21.91
2016-09-29T10:13:08.435Z,21.95
2016-09-29T10:14:08.096Z,21.92
2016-09-29T10:15:08.414Z,21.98
2016-09-29T10:16:08.398Z,21.92
2016-09-29T10:17:08.071Z,21.75
2016-09-29T10:18:08.068Z,21.83
2016-09-29T10:19:08.372Z,21.79
2016-09-29T10:20:08.052Z,21.82
2016-09-29T10:21:08.057Z,21.76
2016-09-29T10:22:08.056Z,21.85
2016-09-29T10:23:08.033Z,21.78
2016-09-29T10:24:08.022Z,21.75
2016-09-29T10:25:08.330Z,21.83
2016-09-29T10:26:08.329Z,21.83
2016-09-29T10:27:08.003Z,21.78
2016-09-29T10:28:08.002Z,21.66
2016-09-29T10:29:08.308Z,21.64
2016-09-29T10:30:08.298Z,21.59
2016-09-29T10:31:07.978Z,21.64
2016-09-29T10:32:07.980Z,21.81
2016-09-29T10:33:08.279Z,21.69
2016-09-29T10:34:07.956Z,21.69
2016-09-29T10:35:07.947Z,21.83
2016-09-29T10:36:07.947Z,21.91
2016-09-29T10:37:07.937Z,21.92
2016-09-29T10:38:08.240Z,21.85
2016-09-29T10:39:07.923Z,21.97
2016-09-29T10:40:07.917Z,21.98
2016-09-29T10:41:07.904Z,22.16
2016-09-29T10:42:07.920Z,22.19
2016-09-29T10:43:08.215Z,22.32
2016-09-29T10:44:07.884Z,22.6
2016-09-29T10:45:07.890Z,22.71
2016-09-29T10:46:08.205Z,22.86
2016-09-29T10:47:07.867Z,22.94
2016-09-29T10:48:07.864Z,23.05
2016-09-29T10:49:08.062Z,23.04
2016-09-29T10:50:07.853Z,23.02
2016-09-29T10:51:07.854Z,22.94
2016-09-29T10:52:07.835Z,22.97
2016-09-29T10:53:07.830Z,22.97
2016-09-29T10:54:07.830Z,22.97
2016-09-29T10:55:07.822Z,22.84
2016-09-29T10:56:07.816Z,22.82
2016-09-29T10:57:07.810Z,22.68
2016-09-29T10:58:07.802Z,22.67
2016-09-29T10:59:07.798Z,22.49
2016-09-29T11:00:07.794Z,22.44
2016-09-29T11:01:07.787Z,22.44
2016-09-29T11:02:07.782Z,22.47
2016-09-29T11:03:07.784Z,22.29
2016-09-29T11:04:08.245Z,22.27
2016-09-29T11:05:08.082Z,22.27
2016-09-29T11:06:08.087Z,22.13
2016-09-29T11:07:07.751Z,22.14
2016-09-29T11:08:08.385Z,22.22
2016-09-29T11:09:08.057Z,22.23
2016-09-29T11:10:07.736Z,22.41
2016-09-29T11:11:07.730Z,22.53
2016-09-29T11:12:07.722Z,22.59
2016-09-29T11:13:08.028Z,22.65
2016-09-29T11:14:07.715Z,22.71
2016-09-29T11:15:07.724Z,22.8
2016-09-29T11:16:07.696Z,22.87
2016-09-29T11:17:08.015Z,22.97
2016-09-29T11:18:08.004Z,23.05
2016-09-29T11:19:07.684Z,23.19
2016-09-29T11:20:07.675Z,23.29
2016-09-29T11:21:07.669Z,23.4
2016-09-29T11:22:07.662Z,23.38
2016-09-29T11:23:07.658Z,23.39
2016-09-29T11:24:07.964Z,23.42
2016-09-29T11:25:07.647Z,23.45
2016-09-29T11:26:07.639Z,23.45
2016-09-29T11:27:07.637Z,23.45
2016-09-29T11:28:07.637Z,23.53
2016-09-29T11:29:07.625Z,23.62
2016-09-29T11:30:07.933Z,23.53
2016-09-29T11:31:07.631Z,23.53
2016-09-29T11:32:07.643Z,23.39
2016-09-29T11:33:07.922Z,23.43
2016-09-29T11:34:07.601Z,23.45
2016-09-29T11:35:07.907Z,23.57
2016-09-29T11:36:07.592Z,23.71
2016-09-29T11:37:07.600Z,23.85
2016-09-29T11:38:07.587Z,23.97
2016-09-29T11:39:07.894Z,24.02
2016-09-29T11:40:07.884Z,24.13
2016-09-29T11:41:07.881Z,24.34
2016-09-29T11:42:07.565Z,24.47
2016-09-29T11:43:07.556Z,24.45
2016-09-29T11:44:07.555Z,24.63
2016-09-29T11:45:07.555Z,24.68
2016-09-29T11:46:07.549Z,24.82
2016-09-29T11:47:07.549Z,24.6
2016-09-29T11:48:07.545Z,24.95
2016-09-29T11:49:07.547Z,25.05
2016-09-29T11:50:07.540Z,25.22
2016-09-29T11:51:07.851Z,24.82
2016-09-29T11:52:07.521Z,24.68
2016-09-29T11:53:07.521Z,24.83
2016-09-29T11:54:07.832Z,24.67
2016-09-29T11:55:07.834Z,24.47
2016-09-29T11:56:07.829Z,24.31
2016-09-29T11:57:08.147Z,24.39
2016-09-29T11:58:07.523Z,24.53
2016-09-29T11:59:07.512Z,24.61
2016-09-29T12:00:07.821Z,24.44
2016-09-29T12:01:07.496Z,24.37
2016-09-29T12:02:07.500Z,24.61
2016-09-29T12:03:07.491Z,24.5
2016-09-29T12:04:07.488Z,24.05
2016-09-29T12:05:07.816Z,23.95
2016-09-29T12:06:07.486Z,23.95
2016-09-29T12:07:07.486Z,23.94
2016-09-29T12:08:07.791Z,24
2016-09-29T12:09:07.474Z,24.34
2016-09-29T12:10:07.460Z,24.2
2016-09-29T12:11:07.465Z,24.1
2016-09-29T12:12:07.459Z,24.07
2016-09-29T12:13:07.459Z,23.87
2016-09-29T12:14:07.451Z,23.76
2016-09-29T12:15:07.447Z,23.85
2016-09-29T12:16:07.753Z,23.86
2016-09-29T12:17:07.642Z,23.9
2016-09-29T12:18:07.440Z,24.2
2016-09-29T12:19:07.428Z,24.47
2016-09-29T12:20:07.628Z,24.56
2016-09-29T12:21:07.419Z,24.42
2016-09-29T12:22:07.423Z,24.17
2016-09-29T12:23:07.410Z,23.92
2016-09-29T12:24:07.416Z,23.49
2016-09-29T12:25:07.405Z,23.38
2016-09-29T12:26:07.404Z,23.14
2016-09-29T12:27:07.395Z,23.19
2016-09-29T12:28:07.407Z,23.67
2016-09-29T12:29:07.421Z,24.12
2016-09-29T12:30:07.386Z,24.47
2016-09-29T12:31:07.378Z,24.97
2016-09-29T12:32:07.388Z,25.22
2016-09-29T12:33:07.692Z,25.31
2016-09-29T12:34:07.364Z,25.07
2016-09-29T12:35:07.382Z,25.16
2016-09-29T12:36:07.363Z,25.22
2016-09-29T12:37:07.674Z,24.95
2016-09-29T12:38:07.354Z,24.42
2016-09-29T12:39:07.662Z,24.32
2016-09-29T12:40:07.343Z,24.56
2016-09-29T12:41:07.545Z,24.77
2016-09-29T12:42:07.339Z,24.64
2016-09-29T12:43:07.650Z,24.83
2016-09-29T12:44:07.333Z,25.02
2016-09-29T12:45:07.328Z,25.43
2016-09-29T12:46:07.349Z,25.65
2016-09-29T12:47:07.329Z,25.67
2016-09-29T12:48:07.321Z,25.46
2016-09-29T12:49:08.047Z,25.01
2016-09-29T12:50:07.334Z,24.85
2016-09-29T12:51:07.635Z,24.57
2016-09-29T12:52:07.629Z,24.44
2016-09-29T12:53:07.637Z,24.79
2016-09-29T12:54:07.507Z,25.09
2016-09-29T12:55:07.296Z,25.53